Time;durP1;ratioP1;P1;durP2;ratioP2;P2;SDS_P1;SDS_P2;PMS_P1;PMS_P2;Temp;Humidity;BMP_temperature;BMP_pressure;BME280_temperature;BME280_humidity;BME280_pressure;Samples;Min_cycle;Max_cycle;Signal;HPM_P1;HPM_P2
2022/08/25 00:01:00;;;;;;;37.47;13.20;;;;;;;;;;6220944;28;20049;-59
2022/08/25 00:04:03;;;;;;;34.63;12.20;;;;;;;;;;6220071;28;20077;-60
2022/08/25 00:07:04;;;;;;;42.58;11.70;;;;;;;;;;6220669;28;20045;-63
2022/08/25 00:10:05;;;;;;;40.57;13.27;;;;;;;;;;6224109;28;20049;-62
2022/08/25 00:13:06;;;;;;;42.10;13.27;;;;;;;;;;6220440;28;20061;-61
2022/08/25 00:16:07;;;;;;;29.37;11.40;;;;;;;;;;6221773;28;20092;-59
2022/08/25 00:19:13;;;;;;;39.20;11.87;;;;;;;;;;6220391;28;20295;-59
2022/08/25 00:22:14;;;;;;;29.27;11.85;;;;;;;;;;6219330;28;20491;-60
2022/08/25 00:25:15;;;;;;;34.73;12.60;;;;;;;;;;6220838;28;20069;-59
2022/08/25 00:28:16;;;;;;;37.35;11.43;;;;;;;;;;6221854;28;20064;-61
2022/08/25 00:31:19;;;;;;;26.58;11.95;;;;;;;;;;6217248;28;20519;-57
2022/08/25 00:34:31;;;;;;;32.22;12.80;;;;;;;;;;6201101;28;20064;-62
2022/08/25 00:37:32;;;;;;;;;;;;;;;;;;6219925;28;20128;-62
2022/08/25 00:40:33;;;;;;;38.53;12.27;;;;;;;;;;6217678;28;20306;-63
2022/08/25 00:43:39;;;;;;;41.23;13.27;;;;;;;;;;6222405;28;20049;-61
2022/08/25 00:46:44;;;;;;;35.42;14.45;;;;;;;;;;6222399;28;20061;-58
2022/08/25 00:49:55;;;;;;;41.60;13.63;;;;;;;;;;6221181;28;20148;-61
2022/08/25 00:52:59;;;;;;;36.50;13.75;;;;;;;;;;6217123;28;20064;-62
2022/08/25 00:56:00;;;;;;;35.33;14.05;;;;;;;;;;6219045;28;20053;-59
2022/08/25 00:59:02;;;;;;;32.42;13.20;;;;;;;;;;6222423;28;20058;-60
2022/08/25 01:02:06;;;;;;;36.88;13.43;;;;;;;;;;6218818;28;20041;-62
2022/08/25 01:05:07;;;;;;;31.13;13.02;;;;;;;;;;6218127;28;20126;-59
2022/08/25 01:08:08;;;;;;;32.15;13.52;;;;;;;;;;6217869;28;20049;-63
2022/08/25 01:11:12;;;;;;;35.58;13.63;;;;;;;;;;6217004;28;20046;-59
2022/08/25 01:14:15;;;;;;;34.67;15.13;;;;;;;;;;6223268;28;20060;-58
2022/08/25 01:17:16;;;;;;;37.45;14.55;;;;;;;;;;6217553;28;20049;-57
2022/08/25 01:20:19;;;;;;;38.30;14.30;;;;;;;;;;6220589;28;20075;-58
2022/08/25 01:23:21;;;;;;;40.50;15.27;;;;;;;;;;6222205;28;20057;-61
2022/08/25 01:26:27;;;;;;;49.70;15.30;;;;;;;;;;6234329;28;20123;-57
2022/08/25 01:29:28;;;;;;;42.17;14.10;;;;;;;;;;6232317;28;20084;-57
2022/08/25 01:32:32;;;;;;;35.70;15.00;;;;;;;;;;6241313;28;20057;-59
2022/08/25 01:35:34;;;;;;;44.72;14.85;;;;;;;;;;6238098;28;20048;-58
2022/08/25 01:38:35;;;;;;;;;;;;;;;;;;6231419;28;20115;-58
2022/08/25 01:41:44;;;;;;;45.85;16.05;;;;;;;;;;6222797;28;19929;-57
2022/08/25 01:44:46;;;;;;;41.95;16.33;;;;;;;;;;6227976;28;20042;-59
2022/08/25 01:47:47;;;;;;;51.20;17.10;;;;;;;;;;6217759;28;20136;-58
2022/08/25 01:50:47;;;;;;;37.60;16.83;;;;;;;;;;6227716;28;20034;-59
2022/08/25 01:53:49;;;;;;;48.20;19.03;;;;;;;;;;6225939;28;20057;-60
2022/08/25 01:56:50;;;;;;;43.40;17.67;;;;;;;;;;6223091;28;20661;-61
2022/08/25 01:59:50;;;;;;;40.87;17.10;;;;;;;;;;6226162;28;20099;-58
2022/08/25 02:02:51;;;;;;;45.67;18.20;;;;;;;;;;6225248;28;20379;-56
2022/08/25 02:05:53;;;;;;;42.47;16.63;;;;;;;;;;6227750;28;20069;-58
2022/08/25 02:08:58;;;;;;;48.35;18.20;;;;;;;;;;6224807;28;20053;-58
2022/08/25 02:11:58;;;;;;;44.20;17.33;;;;;;;;;;6225090;28;20396;-60
2022/08/25 02:15:00;;;;;;;41.33;17.67;;;;;;;;;;6229458;28;20045;-62
2022/08/25 02:18:01;;;;;;;46.70;18.20;;;;;;;;;;6227783;28;20136;-63
2022/08/25 02:21:01;;;;;;;42.47;17.30;;;;;;;;;;6231138;28;20440;-59
2022/08/25 02:24:03;;;;;;;43.80;17.00;;;;;;;;;;6230521;28;20122;-60
2022/08/25 02:27:04;;;;;;;41.25;16.98;;;;;;;;;;6226691;28;20529;-58
2022/08/25 02:30:05;;;;;;;44.20;17.20;;;;;;;;;;6230802;28;20061;-59
2022/08/25 02:33:05;;;;;;;42.73;16.87;;;;;;;;;;6229873;28;20677;-58
2022/08/25 02:36:07;;;;;;;44.90;17.57;;;;;;;;;;6229035;28;20041;-59
2022/08/25 02:39:08;;;;;;;42.40;16.30;;;;;;;;;;6221349;28;20053;-59
2022/08/25 02:42:09;;;;;;;39.30;15.95;;;;;;;;;;6221762;28;20456;-58
2022/08/25 02:45:09;;;;;;;38.73;16.73;;;;;;;;;;6220344;28;20042;-60
2022/08/25 02:48:10;;;;;;;42.87;17.00;;;;;;;;;;6216837;28;20049;-60
2022/08/25 02:51:12;;;;;;;38.77;16.13;;;;;;;;;;6216884;28;20103;-57
2022/08/25 02:54:13;;;;;;;40.88;16.10;;;;;;;;;;6220198;28;20072;-57
2022/08/25 02:57:14;;;;;;;37.43;16.13;;;;;;;;;;6217849;28;20572;-57
2022/08/25 03:00:16;;;;;;;36.28;15.80;;;;;;;;;;6221486;28;20434;-59
2022/08/25 03:03:17;;;;;;;42.42;15.32;;;;;;;;;;6221042;28;20192;-57
2022/08/25 03:06:21;;;;;;;37.45;14.60;;;;;;;;;;6220421;28;20057;-58
2022/08/25 03:09:22;;;;;;;40.45;15.10;;;;;;;;;;6219949;28;20045;-58
2022/08/25 03:12:23;;;;;;;30.67;14.27;;;;;;;;;;6224156;28;20496;-57
2022/08/25 03:15:26;;;;;;;46.50;15.40;;;;;;;;;;6220977;28;20060;-57
2022/08/25 03:18:27;;;;;;;38.13;15.05;;;;;;;;;;6218388;28;20046;-56
2022/08/25 03:21:28;;;;;;;45.57;15.93;;;;;;;;;;6219817;28;20507;-55
2022/08/25 03:24:29;;;;;;;38.27;15.43;;;;;;;;;;6221703;28;20052;-60
2022/08/25 03:27:29;;;;;;;38.67;16.60;;;;;;;;;;6218071;28;20053;-58
2022/08/25 03:30:30;;;;;;;48.53;16.73;;;;;;;;;;6220384;28;20080;-57
2022/08/25 03:33:31;;;;;;;35.33;15.70;;;;;;;;;;6222500;28;20048;-54
2022/08/25 03:36:31;;;;;;;37.13;15.07;;;;;;;;;;6221588;28;20182;-57
2022/08/25 03:39:32;;;;;;;41.83;15.40;;;;;;;;;;6218345;28;20041;-58
2022/08/25 03:42:33;;;;;;;40.40;15.37;;;;;;;;;;6221266;28;20066;-56
2022/08/25 03:45:33;;;;;;;36.93;15.87;;;;;;;;;;6221438;28;20817;-57
2022/08/25 03:48:34;;;;;;;40.80;15.57;;;;;;;;;;6225086;28;20539;-59
2022/08/25 03:51:46;;;;;;;39.80;14.83;;;;;;;;;;6227111;28;20458;-58
2022/08/25 03:54:48;;;;;;;33.00;15.65;;;;;;;;;;6226415;28;20056;-59
2022/08/25 03:57:50;;;;;;;42.55;17.13;;;;;;;;;;6218959;28;20061;-57
2022/08/25 04:00:50;;;;;;;50.75;17.35;;;;;;;;;;6223466;28;20124;-58
2022/08/25 04:03:51;;;;;;;43.07;17.03;;;;;;;;;;6220712;28;20097;-59
2022/08/25 04:06:52;;;;;;;39.83;17.30;;;;;;;;;;6221407;28;20058;-59
2022/08/25 04:09:53;;;;;;;38.67;16.67;;;;;;;;;;6219663;28;20112;-63
2022/08/25 04:12:54;;;;;;;49.05;17.90;;;;;;;;;;6221362;28;20081;-58
2022/08/25 04:15:55;;;;;;;42.63;17.80;;;;;;;;;;6223987;28;20073;-61
2022/08/25 04:18:58;;;;;;;44.93;17.57;;;;;;;;;;6220086;28;20115;-58
2022/08/25 04:21:58;;;;;;;43.20;16.52;;;;;;;;;;6221694;28;20100;-61
2022/08/25 04:24:59;;;;;;;44.63;18.07;;;;;;;;;;6219945;28;20046;-59
2022/08/25 04:28:00;;;;;;;38.23;15.60;;;;;;;;;;6220197;28;20443;-64
2022/08/25 04:31:04;;;;;;;41.20;16.65;;;;;;;;;;6224702;28;20049;-58
2022/08/25 04:34:04;;;;;;;41.65;17.13;;;;;;;;;;6225447;28;20049;-62
2022/08/25 04:37:06;;;;;;;45.80;17.43;;;;;;;;;;6225038;28;20677;-61
2022/08/25 04:40:08;;;;;;;40.15;16.52;;;;;;;;;;6223875;28;20081;-58
2022/08/25 04:43:08;;;;;;;;;;;;;;;;;;6225496;28;20053;-58
2022/08/25 04:46:12;;;;;;;37.85;15.93;;;;;;;;;;6224020;28;19929;-63
2022/08/25 04:49:14;;;;;;;47.42;16.55;;;;;;;;;;6221344;28;20227;-58
2022/08/25 04:52:14;;;;;;;53.27;19.30;;;;;;;;;;6226470;28;20109;-62
2022/08/25 04:55:16;;;;;;;44.97;19.50;;;;;;;;;;6225858;28;20299;-58
2022/08/25 04:58:16;;;;;;;;;;;;;;;;;;6220862;28;20054;-63
2022/08/25 05:01:21;;;;;;;44.45;17.75;;;;;;;;;;6226166;28;20283;-60
2022/08/25 05:04:21;;;;;;;38.63;18.42;;;;;;;;;;6226661;28;20825;-63
2022/08/25 05:07:22;;;;;;;50.20;18.92;;;;;;;;;;6221224;28;20052;-59
2022/08/25 05:10:23;;;;;;;46.90;19.10;;;;;;;;;;6221678;28;20136;-58
2022/08/25 05:13:25;;;;;;;44.67;19.13;;;;;;;;;;6225819;28;20343;-58
2022/08/25 05:16:26;;;;;;;44.72;18.85;;;;;;;;;;6224092;28;20056;-57
2022/08/25 05:19:26;;;;;;;53.87;20.37;;;;;;;;;;6225730;28;20041;-58
2022/08/25 05:22:27;;;;;;;46.77;18.73;;;;;;;;;;6223146;28;20299;-57
2022/08/25 05:25:28;;;;;;;40.13;19.27;;;;;;;;;;6223688;28;20397;-58
2022/08/25 05:28:28;;;;;;;45.20;19.23;;;;;;;;;;6221352;28;20464;-56
2022/08/25 05:31:31;;;;;;;47.47;21.10;;;;;;;;;;6219914;28;20045;-59
2022/08/25 05:34:31;;;;;;;51.13;19.85;;;;;;;;;;6225367;28;20077;-57
2022/08/25 05:37:32;;;;;;;47.47;20.73;;;;;;;;;;6223118;28;20100;-58
2022/08/25 05:40:33;;;;;;;58.95;21.70;;;;;;;;;;6222038;28;20052;-62
2022/08/25 05:43:35;;;;;;;56.70;21.60;;;;;;;;;;6221449;28;20812;-57
2022/08/25 05:46:36;;;;;;;51.00;21.02;;;;;;;;;;6221934;28;20306;-58
2022/08/25 05:49:37;;;;;;;55.27;23.87;;;;;;;;;;6222775;28;20558;-58
2022/08/25 05:52:37;;;;;;;57.20;23.30;;;;;;;;;;6222040;28;20497;-59
2022/08/25 05:55:43;;;;;;;51.63;22.15;;;;;;;;;;6221533;28;20168;-60
2022/08/25 05:58:44;;;;;;;61.60;24.15;;;;;;;;;;6212807;28;20180;-55
2022/08/25 06:05:04;;;;;;;58.90;21.60;;;;;;;;;;6220910;28;20751;-57
2022/08/25 06:08:05;;;;;;;64.23;22.93;;;;;;;;;;6217980;28;20041;-58
2022/08/25 06:11:06;;;;;;;57.47;22.10;;;;;;;;;;6220997;28;20847;-56
2022/08/25 06:14:08;;;;;;;56.97;20.50;;;;;;;;;;6219650;28;20056;-61
2022/08/25 06:17:09;;;;;;;57.30;20.30;;;;;;;;;;6220555;28;20523;-61
2022/08/25 06:20:19;;;;;;;47.57;18.60;;;;;;;;;;6227325;28;20072;-58
2022/08/25 06:23:20;;;;;;;52.83;18.10;;;;;;;;;;6227320;28;20396;-56
2022/08/25 06:26:21;;;;;;;47.60;17.97;;;;;;;;;;6228118;28;20088;-60
2022/08/25 06:29:22;;;;;;;50.10;19.07;;;;;;;;;;6229668;28;20045;-61
2022/08/25 06:32:22;;;;;;;45.50;19.38;;;;;;;;;;6224609;28;20069;-58
2022/08/25 06:35:24;;;;;;;54.30;19.87;;;;;;;;;;6221404;28;20097;-60
2022/08/25 06:38:25;;;;;;;;;;;;;;;;;;6218057;28;20647;-58
2022/08/25 06:41:26;;;;;;;66.57;18.48;;;;;;;;;;6219630;28;19968;-57
2022/08/25 06:44:27;;;;;;;55.70;18.52;;;;;;;;;;6221122;28;20049;-59
2022/08/25 06:47:27;;;;;;;53.30;18.60;;;;;;;;;;6220740;28;20060;-58
2022/08/25 06:50:28;;;;;;;59.17;21.10;;;;;;;;;;6225276;28;20535;-58
2022/08/25 06:53:29;;;;;;;52.20;16.90;;;;;;;;;;6220781;28;20357;-62
2022/08/25 06:56:29;;;;;;;47.67;15.23;;;;;;;;;;6227528;28;20568;-58
2022/08/25 06:59:30;;;;;;;52.00;17.20;;;;;;;;;;6229304;28;20084;-58
2022/08/25 07:02:31;;;;;;;47.93;15.17;;;;;;;;;;6229007;28;20049;-59
2022/08/25 07:05:31;;;;;;;53.17;16.80;;;;;;;;;;6229487;28;20056;-60
2022/08/25 07:08:34;;;;;;;47.83;16.33;;;;;;;;;;6225805;28;20140;-63
2022/08/25 07:11:35;;;;;;;52.58;14.68;;;;;;;;;;6227907;28;20549;-59
2022/08/25 07:14:35;;;;;;;59.23;15.20;;;;;;;;;;6228047;28;20498;-59
2022/08/25 07:17:36;;;;;;;46.73;15.23;;;;;;;;;;6227663;28;20060;-57
2022/08/25 07:20:38;;;;;;;63.23;16.57;;;;;;;;;;6225961;28;20041;-59
2022/08/25 07:23:40;;;;;;;42.17;14.80;;;;;;;;;;6229357;28;20539;-59
2022/08/25 07:26:42;;;;;;;55.55;14.75;;;;;;;;;;6227459;28;20412;-58
2022/08/25 07:29:43;;;;;;;57.92;15.18;;;;;;;;;;6219206;28;20045;-56
2022/08/25 07:32:44;;;;;;;59.03;15.67;;;;;;;;;;6218392;28;20710;-61
2022/08/25 07:35:44;;;;;;;51.03;15.20;;;;;;;;;;6217688;28;20365;-59
2022/08/25 07:38:45;;;;;;;52.03;16.10;;;;;;;;;;6214143;28;20061;-61
2022/08/25 07:41:45;;;;;;;69.27;17.13;;;;;;;;;;6218005;28;20042;-62
2022/08/25 07:44:46;;;;;;;50.50;15.80;;;;;;;;;;6219834;28;21697;-59
2022/08/25 07:47:47;;;;;;;65.33;16.17;;;;;;;;;;6226221;28;20141;-59
2022/08/25 07:50:48;;;;;;;64.22;16.05;;;;;;;;;;6227206;28;20048;-63
2022/08/25 07:53:49;;;;;;;76.10;16.13;;;;;;;;;;6229381;28;20046;-58
2022/08/25 07:56:50;;;;;;;53.33;16.23;;;;;;;;;;6219161;28;20597;-59
2022/08/25 07:59:51;;;;;;;67.70;17.87;;;;;;;;;;6218947;28;20061;-62
2022/08/25 08:02:52;;;;;;;54.53;16.45;;;;;;;;;;6222566;28;20639;-59
2022/08/25 08:05:55;;;;;;;62.23;17.77;;;;;;;;;;6225363;28;20057;-58
2022/08/25 08:08:56;;;;;;;57.30;17.50;;;;;;;;;;6226887;28;20042;-58
2022/08/25 08:11:57;;;;;;;70.20;18.80;;;;;;;;;;6233055;28;20097;-58
2022/08/25 08:14:58;;;;;;;64.33;16.80;;;;;;;;;;6233031;28;20068;-60
2022/08/25 08:17:59;;;;;;;65.97;18.88;;;;;;;;;;6232254;28;20047;-60
2022/08/25 08:21:00;;;;;;;57.17;16.57;;;;;;;;;;6229717;28;20033;-57
2022/08/25 08:24:02;;;;;;;69.27;18.20;;;;;;;;;;6233459;28;20041;-62
2022/08/25 08:27:02;;;;;;;67.45;16.90;;;;;;;;;;6232796;28;20049;-63
2022/08/25 08:30:05;;;;;;;63.30;17.77;;;;;;;;;;6231347;28;20033;-62
2022/08/25 08:33:05;;;;;;;71.88;16.73;;;;;;;;;;6222781;28;20053;-61
2022/08/25 08:36:10;;;;;;;56.23;17.37;;;;;;;;;;6232341;28;20583;-61
2022/08/25 08:39:11;;;;;;;64.13;17.92;;;;;;;;;;6231444;28;20079;-63
2022/08/25 08:42:47;;;;;;;62.77;17.33;;;;;;;;;;6232201;28;20504;-60
2022/08/25 08:45:52;;;;;;;65.35;18.73;;;;;;;;;;6230306;28;20584;-62
2022/08/25 08:49:04;;;;;;;60.63;16.55;;;;;;;;;;6230930;28;20123;-58
2022/08/25 08:52:08;;;;;;;61.67;15.68;;;;;;;;;;6230339;28;21338;-62
2022/08/25 08:55:20;;;;;;;68.72;17.30;;;;;;;;;;6229844;28;20057;-59
2022/08/25 08:58:44;;;;;;;57.25;16.90;;;;;;;;;;6228862;28;20163;-59
2022/08/25 09:01:47;;;;;;;61.90;16.23;;;;;;;;;;6230468;28;20045;-57
2022/08/25 09:04:58;;;;;;;46.95;16.83;;;;;;;;;;6230040;28;20140;-57
2022/08/25 09:08:11;;;;;;;67.43;17.93;;;;;;;;;;6223974;28;20496;-60
2022/08/25 09:11:33;;;;;;;60.13;16.30;;;;;;;;;;6224951;28;20176;-61
2022/08/25 09:14:57;;;;;;;58.05;15.27;;;;;;;;;;6220868;28;20091;-58
2022/08/25 09:18:14;;;;;;;67.32;16.15;;;;;;;;;;6218527;28;20172;-60
2022/08/25 09:21:20;;;;;;;64.57;16.42;;;;;;;;;;6217930;28;20135;-61
2022/08/25 09:24:32;;;;;;;67.00;15.90;;;;;;;;;;6222512;28;20148;-59
2022/08/25 09:27:58;;;;;;;64.00;15.98;;;;;;;;;;6221593;28;20052;-57
2022/08/25 09:31:09;;;;;;;65.85;17.25;;;;;;;;;;6220040;28;20050;-56
2022/08/25 09:34:19;;;;;;;68.47;16.60;;;;;;;;;;6218146;28;20053;-55
2022/08/25 09:37:22;;;;;;;79.05;18.08;;;;;;;;;;6219614;28;20048;-58
2022/08/25 09:40:24;;;;;;;77.20;17.60;;;;;;;;;;6220601;28;21502;-59
2022/08/25 09:43:29;;;;;;;58.03;16.50;;;;;;;;;;6215145;28;20901;-61
2022/08/25 09:46:30;;;;;;;60.25;16.73;;;;;;;;;;6217681;28;20045;-57
2022/08/25 09:49:38;;;;;;;61.55;16.08;;;;;;;;;;6219163;28;20087;-59
2022/08/25 09:52:41;;;;;;;61.50;16.38;;;;;;;;;;6217047;28;20128;-59
2022/08/25 09:55:44;;;;;;;68.10;17.92;;;;;;;;;;6221946;28;20832;-62
2022/08/25 09:58:45;;;;;;;64.15;17.65;;;;;;;;;;6206809;28;20045;-58
2022/08/25 10:01:57;;;;;;;64.87;17.17;;;;;;;;;;6227121;28;20146;-60
2022/08/25 10:04:58;;;;;;;65.28;16.02;;;;;;;;;;6225274;28;20077;-61
2022/08/25 10:08:02;;;;;;;59.17;15.87;;;;;;;;;;6223360;28;20060;-63
2022/08/25 10:11:11;;;;;;;44.80;15.20;;;;;;;;;;6227109;28;21170;-62
2022/08/25 10:14:25;;;;;;;69.10;16.92;;;;;;;;;;6224099;28;20058;-61
2022/08/25 10:17:29;;;;;;;63.70;16.60;;;;;;;;;;6226778;28;20067;-63
2022/08/25 10:20:30;;;;;;;65.38;16.75;;;;;;;;;;6225174;28;20144;-62
2022/08/25 10:23:32;;;;;;;66.60;17.10;;;;;;;;;;6225819;28;20049;-63
2022/08/25 10:26:41;;;;;;;64.05;17.55;;;;;;;;;;6215148;28;20050;-63
2022/08/25 10:29:55;;;;;;;65.93;16.27;;;;;;;;;;6220845;28;20045;-58
2022/08/25 10:33:08;;;;;;;48.17;15.00;;;;;;;;;;6218297;28;20140;-58
2022/08/25 10:36:27;;;;;;;52.58;15.35;;;;;;;;;;6215782;28;20054;-59
2022/08/25 10:39:43;;;;;;;59.70;15.93;;;;;;;;;;6215488;28;20773;-59
2022/08/25 10:43:18;;;;;;;65.47;16.00;;;;;;;;;;6220227;28;20594;-59
2022/08/25 10:46:28;;;;;;;63.60;15.93;;;;;;;;;;6220991;28;20037;-59
2022/08/25 10:50:19;;;;;;;61.25;20.58;;;;;;;;;;6215960;28;20065;-55
2022/08/25 10:53:28;;;;;;;;;;;;;;;;;;6196863;28;20171;-58
2022/08/25 10:56:36;;;;;;;51.00;15.48;;;;;;;;;;6213369;28;19929;-59
2022/08/25 10:59:49;;;;;;;54.55;14.35;;;;;;;;;;6218669;28;20088;-59
2022/08/25 11:03:10;;;;;;;54.95;13.63;;;;;;;;;;6217869;28;20493;-58
2022/08/25 11:06:44;;;;;;;64.87;15.67;;;;;;;;;;6216169;28;20185;-58
2022/08/25 11:09:48;;;;;;;53.55;15.18;;;;;;;;;;6218798;28;20057;-58
2022/08/25 11:12:53;;;;;;;50.22;15.00;;;;;;;;;;6216506;28;20619;-56
2022/08/25 11:16:02;;;;;;;57.55;14.93;;;;;;;;;;6219369;28;20132;-60
2022/08/25 11:19:17;;;;;;;52.33;15.48;;;;;;;;;;6215362;28;20125;-56
2022/08/25 11:22:32;;;;;;;51.75;16.48;;;;;;;;;;6216152;28;20056;-57
2022/08/25 11:25:41;;;;;;;63.83;16.55;;;;;;;;;;6215502;28;20059;-58
2022/08/25 11:28:56;;;;;;;52.15;14.82;;;;;;;;;;6219377;28;20049;-58
2022/08/25 11:31:59;;;;;;;52.38;13.93;;;;;;;;;;6217468;28;20053;-57
2022/08/25 11:35:12;;;;;;;55.13;15.15;;;;;;;;;;6214275;28;20489;-58
2022/08/25 11:38:37;;;;;;;47.72;14.30;;;;;;;;;;6216781;28;20152;-58
2022/08/25 11:41:57;;;;;;;52.90;15.05;;;;;;;;;;6222062;28;20049;-59
2022/08/25 11:45:07;;;;;;;62.28;16.70;;;;;;;;;;6222715;28;20586;-58
2022/08/25 11:48:45;;;;;;;53.28;16.33;;;;;;;;;;6228394;28;20058;-59
2022/08/25 11:51:49;;;;;;;50.92;15.65;;;;;;;;;;6231193;28;20041;-59
2022/08/25 11:54:50;;;;;;;50.75;14.52;;;;;;;;;;6230019;28;20038;-58
2022/08/25 11:58:34;;;;;;;51.45;15.50;;;;;;;;;;6218473;28;20049;-66
2022/08/25 12:01:44;;;;;;;46.38;14.23;;;;;;;;;;6213629;28;20550;-59
2022/08/25 12:04:45;;;;;;;50.83;15.73;;;;;;;;;;6222774;28;20057;-59
2022/08/25 12:07:48;;;;;;;54.17;14.73;;;;;;;;;;6220556;28;20551;-59
2022/08/25 12:11:01;;;;;;;61.33;16.38;;;;;;;;;;6221109;28;20045;-58
2022/08/25 12:14:15;;;;;;;45.38;16.00;;;;;;;;;;6227743;28;20176;-59
2022/08/25 12:17:20;;;;;;;51.72;15.60;;;;;;;;;;6231396;28;20136;-60
2022/08/25 12:20:55;;;;;;;48.38;13.90;;;;;;;;;;6233671;28;20060;-59
2022/08/25 12:24:02;;;;;;;40.30;13.65;;;;;;;;;;6230706;28;20091;-61
2022/08/25 12:27:05;;;;;;;59.90;14.23;;;;;;;;;;6228917;28;20037;-59
2022/08/25 12:30:24;;;;;;;52.90;15.35;;;;;;;;;;6229148;28;20045;-57
2022/08/25 12:33:42;;;;;;;42.30;14.57;;;;;;;;;;6228664;28;20045;-58
2022/08/25 12:36:56;;;;;;;51.78;14.13;;;;;;;;;;6226184;28;20049;-56
2022/08/25 12:40:03;;;;;;;48.53;14.57;;;;;;;;;;6228884;28;20041;-61
2022/08/25 12:43:12;;;;;;;49.90;13.77;;;;;;;;;;6229061;28;20559;-58
2022/08/25 12:46:22;;;;;;;44.75;14.95;;;;;;;;;;6229089;28;20048;-58
2022/08/25 12:49:31;;;;;;;57.42;14.77;;;;;;;;;;6226717;28;20053;-58
2022/08/25 12:52:35;;;;;;;52.35;15.15;;;;;;;;;;6227715;28;20891;-58
2022/08/25 12:55:47;;;;;;;54.20;15.68;;;;;;;;;;6229335;28;20053;-59
2022/08/25 12:59:08;;;;;;;;;;;;;;;;;;6227619;28;20054;-60
2022/08/25 13:02:43;;;;;;;56.42;15.30;;;;;;;;;;6212633;28;19955;-59
2022/08/25 13:06:13;;;;;;;51.05;14.98;;;;;;;;;;6231373;28;20049;-63
2022/08/25 13:09:46;;;;;;;42.80;12.87;;;;;;;;;;6226976;28;20220;-59
2022/08/25 13:12:56;;;;;;;50.00;13.98;;;;;;;;;;6229324;28;20049;-59
2022/08/25 13:16:01;;;;;;;55.95;14.15;;;;;;;;;;6223715;28;20041;-59
2022/08/25 13:19:04;;;;;;;42.13;14.45;;;;;;;;;;6227159;28;20049;-58
2022/08/25 13:22:14;;;;;;;47.00;14.35;;;;;;;;;;6228335;28;20064;-59
2022/08/25 13:25:22;;;;;;;45.50;13.73;;;;;;;;;;6225380;28;20058;-61
2022/08/25 13:28:29;;;;;;;46.78;12.43;;;;;;;;;;6224188;28;20439;-60
2022/08/25 13:31:30;;;;;;;44.40;12.15;;;;;;;;;;6225774;28;20060;-55
2022/08/25 13:34:35;;;;;;;40.97;12.18;;;;;;;;;;6226245;28;20492;-58
2022/08/25 13:37:35;;;;;;;46.72;11.93;;;;;;;;;;6225788;28;20053;-60
2022/08/25 13:40:36;;;;;;;46.65;11.38;;;;;;;;;;6228882;28;20111;-56
2022/08/25 13:43:38;;;;;;;51.88;13.02;;;;;;;;;;6228328;28;20443;-60
2022/08/25 13:46:38;;;;;;;42.00;11.88;;;;;;;;;;6227786;28;20157;-62
2022/08/25 13:49:43;;;;;;;40.37;12.23;;;;;;;;;;6230060;28;20037;-61
2022/08/25 13:53:10;;;;;;;38.25;11.18;;;;;;;;;;6231530;28;20056;-61
2022/08/25 13:56:10;;;;;;;52.15;12.38;;;;;;;;;;6230973;28;20496;-62
2022/08/25 13:59:19;;;;;;;41.03;10.75;;;;;;;;;;6227694;28;20084;-57
2022/08/25 14:02:38;;;;;;;44.97;10.30;;;;;;;;;;6225922;28;20871;-60
2022/08/25 14:05:42;;;;;;;47.10;11.93;;;;;;;;;;6226934;28;20076;-59
2022/08/25 14:09:06;;;;;;;36.42;11.35;;;;;;;;;;6226515;28;20045;-59
2022/08/25 14:12:07;;;;;;;54.03;12.45;;;;;;;;;;6226561;28;20049;-55
2022/08/25 14:15:26;;;;;;;38.30;10.73;;;;;;;;;;6231089;28;20156;-62
2022/08/25 14:18:31;;;;;;;45.53;11.10;;;;;;;;;;6230610;28;20051;-58
2022/08/25 14:21:32;;;;;;;44.33;10.98;;;;;;;;;;6231119;28;20608;-60
2022/08/25 14:24:34;;;;;;;49.03;11.52;;;;;;;;;;6230085;28;20053;-62
2022/08/25 14:27:35;;;;;;;47.85;11.90;;;;;;;;;;6230567;28;20049;-55
2022/08/25 14:30:41;;;;;;;54.33;13.25;;;;;;;;;;6229308;28;20072;-61
2022/08/25 14:33:54;;;;;;;39.05;11.70;;;;;;;;;;6236698;28;20049;-58
2022/08/25 14:36:55;;;;;;;53.58;12.40;;;;;;;;;;6225495;28;20120;-58
2022/08/25 14:39:57;;;;;;;45.95;10.95;;;;;;;;;;6228736;28;20042;-60
2022/08/25 14:42:58;;;;;;;56.40;14.13;;;;;;;;;;6227136;28;20077;-58
2022/08/25 14:46:01;;;;;;;;;;;;;;;;;;6229521;28;20568;-60
2022/08/25 14:49:06;;;;;;;65.47;13.45;;;;;;;;;;6235434;28;20066;-58
2022/08/25 14:52:14;;;;;;;53.17;12.45;;;;;;;;;;6238446;28;20080;-57
2022/08/25 14:55:15;;;;;;;49.70;11.35;;;;;;;;;;6235226;28;20115;-57
2022/08/25 14:58:17;;;;;;;51.10;10.48;;;;;;;;;;6234775;28;20052;-57
2022/08/25 15:01:19;;;;;;;42.85;12.10;;;;;;;;;;6235271;28;20486;-59
2022/08/25 15:04:24;;;;;;;39.08;10.90;;;;;;;;;;6235364;28;20064;-59
2022/08/25 15:10:45;;;;;;;47.88;11.90;;;;;;;;;;6238493;28;20068;-58
2022/08/25 15:13:46;;;;;;;58.40;10.90;;;;;;;;;;6236260;28;20055;-58
2022/08/25 15:16:50;;;;;;;38.47;11.45;;;;;;;;;;6235572;28;20053;-58
2022/08/25 15:19:51;;;;;;;53.50;11.27;;;;;;;;;;6233440;28;20133;-59
2022/08/25 15:22:51;;;;;;;47.05;11.32;;;;;;;;;;6233363;28;20115;-58
2022/08/25 15:25:53;;;;;;;46.42;10.93;;;;;;;;;;6237273;28;20412;-59
2022/08/25 15:28:54;;;;;;;41.50;12.82;;;;;;;;;;6232924;28;20041;-58
2022/08/25 15:31:55;;;;;;;46.17;12.38;;;;;;;;;;6237892;28;20044;-58
2022/08/25 15:34:56;;;;;;;50.28;12.07;;;;;;;;;;6237111;28;20522;-56
2022/08/25 15:37:57;;;;;;;41.65;10.20;;;;;;;;;;6235415;28;20125;-57
2022/08/25 15:40:57;;;;;;;49.77;12.07;;;;;;;;;;6233736;28;20053;-59
2022/08/25 15:44:01;;;;;;;43.70;11.60;;;;;;;;;;6223077;28;20398;-57
2022/08/25 15:47:02;;;;;;;38.55;10.40;;;;;;;;;;6220240;28;20049;-58
2022/08/25 15:50:09;;;;;;;43.30;10.88;;;;;;;;;;6219955;28;20071;-58
2022/08/25 15:53:10;;;;;;;47.58;11.77;;;;;;;;;;6229540;28;20037;-58
2022/08/25 15:56:14;;;;;;;40.95;11.13;;;;;;;;;;6235792;28;20054;-58
2022/08/25 15:59:15;;;;;;;46.97;11.55;;;;;;;;;;6235448;28;20056;-57
2022/08/25 16:02:16;;;;;;;54.95;12.32;;;;;;;;;;6231517;28;20054;-59
2022/08/25 16:05:17;;;;;;;45.70;11.43;;;;;;;;;;6221260;28;20809;-57
2022/08/25 16:08:18;;;;;;;53.92;11.77;;;;;;;;;;6221545;28;20460;-59
2022/08/25 16:11:21;;;;;;;50.13;11.90;;;;;;;;;;6223004;28;20049;-58
2022/08/25 16:14:21;;;;;;;52.08;10.82;;;;;;;;;;6222003;28;20487;-59
2022/08/25 16:17:22;;;;;;;46.17;11.43;;;;;;;;;;6222976;28;20049;-58
2022/08/25 16:20:23;;;;;;;48.58;12.75;;;;;;;;;;6224277;28;20041;-59
2022/08/25 16:23:23;;;;;;;45.80;11.55;;;;;;;;;;6223584;28;20767;-59
2022/08/25 16:26:24;;;;;;;51.63;12.00;;;;;;;;;;6225025;28;20045;-58
2022/08/25 16:29:25;;;;;;;49.70;12.50;;;;;;;;;;6226627;28;20042;-58
2022/08/25 16:32:25;;;;;;;64.18;12.50;;;;;;;;;;6227451;28;20040;-58
2022/08/25 16:35:26;;;;;;;49.65;12.48;;;;;;;;;;6228037;28;20057;-58
2022/08/25 16:38:27;;;;;;;54.08;12.70;;;;;;;;;;6225686;28;20144;-59
2022/08/25 16:41:32;;;;;;;52.15;12.93;;;;;;;;;;6226919;28;20041;-59
2022/08/25 16:44:34;;;;;;;44.05;12.02;;;;;;;;;;6227822;28;20144;-58
2022/08/25 16:47:36;;;;;;;53.10;12.60;;;;;;;;;;6224237;28;20096;-59
2022/08/25 16:50:38;;;;;;;51.28;13.07;;;;;;;;;;6230599;28;20390;-58
2022/08/25 16:56:59;;;;;;;66.38;13.27;;;;;;;;;;6226044;28;20056;-62
2022/08/25 16:59:59;;;;;;;;;;;;;;;;;;6228382;28;20045;-59
2022/08/25 17:03:03;;;;;;;60.83;14.33;;;;;;;;;;6225574;28;19968;-61
2022/08/25 17:06:05;;;;;;;51.22;13.27;;;;;;;;;;6226887;28;20471;-57
2022/08/25 17:09:08;;;;;;;51.63;13.43;;;;;;;;;;6224184;28;20085;-58
2022/08/25 17:12:10;;;;;;;51.58;13.27;;;;;;;;;;6224687;28;20042;-57
2022/08/25 17:15:10;;;;;;;45.75;13.07;;;;;;;;;;6225220;28;20153;-57
2022/08/25 17:18:12;;;;;;;50.93;15.53;;;;;;;;;;6226884;28;20425;-56
2022/08/25 17:21:15;;;;;;;55.75;13.70;;;;;;;;;;6228833;28;20524;-57
2022/08/25 17:24:15;;;;;;;48.55;14.63;;;;;;;;;;6225908;28;20292;-59
2022/08/25 17:27:17;;;;;;;52.42;14.15;;;;;;;;;;6227606;28;20081;-57
2022/08/25 17:30:17;;;;;;;;;;;;;;;;;;6226725;28;20038;-57
2022/08/25 17:33:19;;;;;;;45.70;14.33;;;;;;;;;;6227322;28;20659;-58
2022/08/25 17:36:19;;;;;;;;;;;;;;;;;;6227268;28;20053;-60
2022/08/25 17:39:21;;;;;;;49.22;15.02;;;;;;;;;;6235076;28;19929;-58
2022/08/25 17:42:23;;;;;;;54.03;14.48;;;;;;;;;;6239521;28;20053;-60
2022/08/25 17:45:24;;;;;;;49.28;15.07;;;;;;;;;;6240451;28;20065;-58
2022/08/25 17:48:26;;;;;;;54.90;15.27;;;;;;;;;;6238023;28;20102;-59
2022/08/25 17:51:27;;;;;;;43.38;15.02;;;;;;;;;;6239857;28;20045;-61
2022/08/25 17:54:27;;;;;;;57.50;16.70;;;;;;;;;;6239971;28;20088;-56
2022/08/25 17:57:28;;;;;;;54.40;15.73;;;;;;;;;;6234057;28;20138;-60
2022/08/25 18:00:29;;;;;;;58.73;14.93;;;;;;;;;;6237316;28;20299;-60
2022/08/25 18:03:30;;;;;;;49.35;16.58;;;;;;;;;;6238309;28;20136;-60
2022/08/25 18:06:31;;;;;;;60.53;15.40;;;;;;;;;;6238542;28;20053;-60
2022/08/25 18:09:32;;;;;;;48.03;15.98;;;;;;;;;;6238386;28;20060;-59